Time;durP1;ratioP1;P1;durP2;ratioP2;P2;SDS_P1;SDS_P2;PMS_P1;PMS_P2;Temp;Humidity;BMP_temperature;BMP_pressure;BME280_temperature;BME280_humidity;BME280_pressure;Samples;Min_cycle;Max_cycle;Signal;HPM_P1;HPM_P2
2021/10/02 00:35:48;;;;;;;8.70;6.47;;;11.10;99.90;;;;;;5013930;28;20487;-67
2021/10/02 00:46:19;;;;;;;8.60;6.30;;;11.00;99.90;;;;;;5013838;28;20395;-67
2021/10/02 00:48:45;;;;;;;8.07;6.23;;;10.90;99.90;;;;;;5013919;28;20412;-67
2021/10/02 00:51:13;;;;;;;8.37;6.23;;;10.90;99.90;;;;;;5013878;28;20530;-67
2021/10/02 00:53:39;;;;;;;14.43;6.10;;;10.90;99.90;;;;;;5013601;28;20173;-67
2021/10/02 00:56:05;;;;;;;7.07;5.33;;;10.90;99.90;;;;;;5013502;28;20399;-67
2021/10/02 00:58:31;;;;;;;7.33;6.53;;;10.90;99.90;;;;;;5013729;28;20176;-67
2021/10/02 01:01:00;;;;;;;9.47;6.10;;;10.80;99.90;;;;;;5013501;28;20411;-67
2021/10/02 01:03:49;;;;;;;8.50;5.10;;;10.90;99.90;;;;;;5013282;28;20423;-68
2021/10/02 01:06:21;;;;;;;7.70;5.57;;;10.80;99.90;;;;;;5013834;28;20528;-68
2021/10/02 01:08:59;;;;;;;6.43;5.70;;;10.80;99.90;;;;;;5033007;28;20464;-68
2021/10/02 01:11:31;;;;;;;9.17;6.27;;;10.80;99.90;;;;;;5033374;28;20914;-68
2021/10/02 01:14:14;;;;;;;7.67;5.03;;;10.80;99.90;;;;;;5033207;28;20397;-68
2021/10/02 01:16:44;;;;;;;8.30;5.57;;;10.80;99.90;;;;;;5033134;28;20540;-67
2021/10/02 01:19:38;;;;;;;7.00;5.40;;;10.80;99.90;;;;;;5032882;28;20938;-67
2021/10/02 01:22:19;;;;;;;6.40;5.10;;;10.80;99.90;;;;;;5033064;28;20456;-68
2021/10/02 01:25:00;;;;;;;6.30;4.63;;;10.80;99.90;;;;;;5032757;28;20491;-67
2021/10/02 01:27:48;;;;;;;6.50;5.27;;;10.80;99.90;;;;;;5032881;28;20430;-68
2021/10/02 01:36:20;;;;;;;6.90;5.40;;;10.80;99.90;;;;;;5033189;28;20469;-68
2021/10/02 01:47:12;;;;;;;7.87;5.67;;;10.70;99.90;;;;;;5033015;28;20417;-68
2021/10/02 01:49:48;;;;;;;6.40;4.90;;;10.70;99.90;;;;;;5032967;28;20390;-68
2021/10/02 01:52:19;;;;;;;7.93;5.90;;;10.70;99.90;;;;;;5032955;28;20526;-68
2021/10/02 01:54:47;;;;;;;7.40;4.53;;;10.70;99.90;;;;;;5032776;28;20390;-68
2021/10/02 01:57:14;;;;;;;8.00;5.90;;;10.60;99.90;;;;;;5032631;28;20402;-68
2021/10/02 01:59:41;;;;;;;6.60;5.70;;;10.60;99.90;;;;;;5031262;28;20951;-68
2021/10/02 02:02:09;;;;;;;6.10;4.90;;;10.70;99.90;;;;;;5032480;28;20796;-68
2021/10/02 02:04:38;;;;;;;7.40;4.77;;;10.70;99.90;;;;;;5032635;28;20464;-68
2021/10/02 02:07:05;;;;;;;5.93;4.43;;;10.80;99.90;;;;;;5029028;28;20776;-67
2021/10/02 02:09:37;;;;;;;7.37;4.93;;;10.80;99.90;;;;;;5032510;28;20980;-68
2021/10/02 02:12:05;;;;;;;7.30;4.50;;;10.80;99.90;;;;;;5032781;28;20434;-68
2021/10/02 02:14:33;;;;;;;7.97;5.10;;;10.90;99.90;;;;;;5032461;28;20414;-68
2021/10/02 02:16:59;;;;;;;7.33;4.80;;;10.80;99.90;;;;;;5032734;28;20826;-68
2021/10/02 02:19:26;;;;;;;5.17;4.20;;;10.90;99.90;;;;;;5031154;28;20825;-68
2021/10/02 02:21:52;;;;;;;5.60;4.37;;;11.00;99.90;;;;;;5032448;28;20875;-68
2021/10/02 02:24:18;;;;;;;6.60;4.23;;;11.10;99.90;;;;;;5032263;28;20515;-68
2021/10/02 02:26:45;;;;;;;5.97;4.33;;;11.10;99.90;;;;;;5032606;28;20160;-68
2021/10/02 02:29:11;;;;;;;5.70;4.30;;;11.10;99.90;;;;;;5032220;28;20175;-68
2021/10/02 02:31:38;;;;;;;5.70;4.20;;;11.10;99.90;;;;;;5032229;28;20438;-68
2021/10/02 02:34:03;;;;;;;7.53;4.90;;;11.10;99.90;;;;;;5032439;28;20744;-69
2021/10/02 02:36:29;;;;;;;7.27;5.20;;;11.20;99.90;;;;;;5032334;28;20418;-68
2021/10/02 02:38:55;;;;;;;6.60;5.17;;;11.30;99.90;;;;;;5031701;28;20191;-68
2021/10/02 02:41:21;;;;;;;8.07;5.87;;;11.40;99.90;;;;;;5027889;28;20313;-68
2021/10/02 02:43:47;;;;;;;5.73;4.17;;;11.40;99.90;;;;;;5030818;28;20665;-68
2021/10/02 02:46:34;;;;;;;6.50;4.73;;;11.40;99.90;;;;;;5035401;28;20172;-68
2021/10/02 02:49:09;;;;;;;7.13;5.13;;;11.50;99.90;;;;;;5035905;28;20395;-68
2021/10/02 02:51:57;;;;;;;7.60;5.13;;;11.50;99.90;;;;;;5035477;28;20428;-68
2021/10/02 02:54:34;;;;;;;4.70;4.20;;;11.60;99.90;;;;;;5024563;28;20886;-68
2021/10/02 02:57:10;;;;;;;5.33;3.97;;;11.60;99.90;;;;;;5035739;28;20814;-68
2021/10/02 02:59:40;;;;;;;7.23;3.73;;;11.70;99.90;;;;;;5035393;28;20397;-68
2021/10/02 03:02:10;;;;;;;4.17;3.47;;;11.70;99.90;;;;;;5035551;28;20790;-68
2021/10/02 03:04:38;;;;;;;5.40;4.20;;;11.60;99.90;;;;;;5035428;28;20728;-68
2021/10/02 03:07:07;;;;;;;5.60;3.73;;;11.50;99.90;;;;;;5035407;28;20405;-68
2021/10/02 03:09:37;;;;;;;7.30;4.20;;;11.50;99.90;;;;;;5035383;28;20759;-68
2021/10/02 03:12:04;;;;;;;5.10;3.77;;;11.50;99.90;;;;;;5034899;28;20418;-68
2021/10/02 03:14:30;;;;;;;5.50;4.47;;;11.50;99.90;;;;;;5035319;28;20429;-68
2021/10/02 03:16:56;;;;;;;6.17;3.87;;;11.50;99.90;;;;;;5035050;28;20399;-68
2021/10/02 03:19:23;;;;;;;7.67;4.07;;;11.50;99.90;;;;;;5033223;28;20928;-68
2021/10/02 03:21:53;;;;;;;4.80;3.40;;;11.60;99.90;;;;;;5020340;28;20463;-68
2021/10/02 03:24:23;;;;;;;6.63;4.50;;;11.60;99.90;;;;;;5015086;28;20529;-67
2021/10/02 03:26:51;;;;;;;5.27;3.80;;;11.50;99.90;;;;;;5029986;28;20414;-67
2021/10/02 03:29:18;;;;;;;5.43;4.00;;;11.50;99.90;;;;;;5035039;28;20923;-68
2021/10/02 03:31:45;;;;;;;5.40;4.13;;;11.40;99.90;;;;;;5035234;28;20414;-67
2021/10/02 03:34:11;;;;;;;6.97;4.47;;;11.30;99.90;;;;;;5034570;28;20415;-67
2021/10/02 03:36:37;;;;;;;5.80;3.93;;;11.20;99.90;;;;;;5034661;28;20413;-67
2021/10/02 03:39:03;;;;;;;6.73;4.67;;;11.20;99.90;;;;;;5034751;28;20405;-67
2021/10/02 03:41:29;;;;;;;6.07;4.33;;;11.10;99.90;;;;;;5034676;28;20926;-67
2021/10/02 03:43:55;;;;;;;5.43;4.23;;;11.00;99.90;;;;;;5034715;28;20234;-67
2021/10/02 03:46:21;;;;;;;5.20;3.97;;;10.90;99.90;;;;;;5034401;28;20167;-67
2021/10/02 03:48:46;;;;;;;6.17;4.40;;;10.90;99.90;;;;;;5034413;28;20167;-68
2021/10/02 03:51:12;;;;;;;5.13;4.00;;;10.90;99.90;;;;;;5034381;28;20161;-68
2021/10/02 03:53:38;;;;;;;5.87;4.27;;;10.90;99.90;;;;;;5034261;28;20222;-68
2021/10/02 03:56:04;;;;;;;7.60;4.50;;;10.90;99.90;;;;;;5034170;28;20178;-68
2021/10/02 03:58:30;;;;;;;6.87;4.30;;;10.80;99.90;;;;;;5034401;28;20175;-69
2021/10/02 04:00:56;;;;;;;5.07;4.30;;;10.70;99.90;;;;;;5034205;28;20770;-68
2021/10/02 04:03:22;;;;;;;5.50;4.10;;;10.70;99.90;;;;;;5034324;28;20195;-69
2021/10/02 04:05:47;;;;;;;5.77;3.47;;;10.70;99.90;;;;;;5034207;28;20812;-68
2021/10/02 04:08:13;;;;;;;5.83;4.97;;;10.60;99.90;;;;;;5020823;28;20183;-68
2021/10/02 04:10:39;;;;;;;6.83;4.33;;;10.60;99.90;;;;;;5014905;28;20172;-68
2021/10/02 04:13:06;;;;;;;6.20;4.50;;;10.60;99.90;;;;;;5014239;28;20669;-68
2021/10/02 04:15:32;;;;;;;6.30;4.80;;;10.60;99.90;;;;;;5014183;28;20411;-68
2021/10/02 04:17:57;;;;;;;7.13;4.83;;;10.60;99.90;;;;;;5014577;28;20411;-68
2021/10/02 04:20:23;;;;;;;4.87;4.37;;;10.50;99.90;;;;;;5014196;28;20168;-68
2021/10/02 04:22:49;;;;;;;9.27;4.33;;;10.60;99.90;;;;;;5013999;28;20208;-68
2021/10/02 04:25:15;;;;;;;5.57;4.30;;;10.60;99.90;;;;;;5013938;28;20586;-68
2021/10/02 04:27:40;;;;;;;7.23;5.40;;;10.60;99.90;;;;;;5014369;28;20180;-68
2021/10/02 04:30:06;;;;;;;6.33;4.80;;;10.70;99.90;;;;;;5014140;28;20176;-68
2021/10/02 04:32:32;;;;;;;7.43;5.17;;;10.70;99.90;;;;;;5014186;28;20196;-68
2021/10/02 04:34:58;;;;;;;6.50;5.17;;;10.70;99.90;;;;;;5013975;28;20405;-68
2021/10/02 04:37:23;;;;;;;7.10;5.87;;;10.60;99.90;;;;;;5014248;28;20199;-68
2021/10/02 04:39:49;;;;;;;6.57;5.50;;;10.60;99.90;;;;;;5013914;28;20652;-68
2021/10/02 04:42:15;;;;;;;6.33;4.90;;;10.60;99.90;;;;;;5013742;28;20188;-69
2021/10/02 04:44:41;;;;;;;7.33;5.70;;;10.50;99.90;;;;;;5013943;28;20200;-68
2021/10/02 04:47:06;;;;;;;7.80;5.30;;;10.50;99.90;;;;;;5013784;28;20165;-68
2021/10/02 04:49:32;;;;;;;6.97;5.70;;;10.50;99.90;;;;;;5014040;28;20165;-68
2021/10/02 04:51:58;;;;;;;7.20;5.63;;;10.50;99.90;;;;;;5013605;28;20676;-68
2021/10/02 04:54:24;;;;;;;7.30;5.03;;;10.50;99.90;;;;;;5014038;28;20176;-68
2021/10/02 04:56:50;;;;;;;7.87;5.50;;;10.50;99.90;;;;;;5013894;28;20407;-68
2021/10/02 04:59:16;;;;;;;5.97;5.33;;;10.50;99.90;;;;;;5013864;28;21027;-68
2021/10/02 05:01:42;;;;;;;8.20;4.60;;;10.50;99.90;;;;;;5013014;28;20533;-68
2021/10/02 05:04:07;;;;;;;5.73;4.70;;;10.50;99.90;;;;;;5014105;28;20250;-68
2021/10/02 05:06:33;;;;;;;7.33;5.10;;;10.50;99.90;;;;;;5013477;28;20532;-68
2021/10/02 05:08:59;;;;;;;6.97;5.10;;;10.50;99.90;;;;;;5013470;28;20716;-68
2021/10/02 05:11:24;;;;;;;6.03;4.40;;;10.60;99.90;;;;;;5013436;28;20174;-68
2021/10/02 05:13:50;;;;;;;6.50;4.40;;;10.70;99.90;;;;;;5013613;28;20172;-68
2021/10/02 05:16:16;;;;;;;5.17;4.37;;;10.70;99.90;;;;;;5013607;28;20645;-68
2021/10/02 05:18:42;;;;;;;6.27;4.73;;;10.60;99.90;;;;;;5013292;28;20645;-68
2021/10/02 05:21:07;;;;;;;8.63;4.97;;;10.60;99.90;;;;;;5013258;28;20177;-68
2021/10/02 05:23:33;;;;;;;8.80;5.63;;;10.60;99.90;;;;;;5013099;28;20187;-68
2021/10/02 05:25:59;;;;;;;7.50;5.03;;;10.60;99.90;;;;;;5013454;28;20176;-68
2021/10/02 05:28:25;;;;;;;5.93;5.13;;;10.50;99.90;;;;;;5013249;28;20226;-68
2021/10/02 05:30:52;;;;;;;6.57;5.13;;;10.50;99.90;;;;;;5013129;28;20179;-68
2021/10/02 05:33:18;;;;;;;6.00;4.70;;;10.60;99.90;;;;;;5013174;28;20176;-68
2021/10/02 05:35:45;;;;;;;7.67;5.07;;;10.60;99.90;;;;;;5013224;28;20472;-68
2021/10/02 05:38:12;;;;;;;8.03;5.60;;;10.70;99.90;;;;;;5013082;28;20416;-68
2021/10/02 05:40:37;;;;;;;4.93;4.37;;;10.70;99.90;;;;;;5013253;28;20713;-68
2021/10/02 05:43:03;;;;;;;7.60;4.90;;;10.70;99.90;;;;;;5012990;28;20461;-68
2021/10/02 05:45:30;;;;;;;7.50;4.60;;;10.80;99.90;;;;;;5013011;28;20533;-68
2021/10/02 05:47:57;;;;;;;5.73;4.17;;;10.90;99.90;;;;;;5013045;28;20196;-68
2021/10/02 05:50:23;;;;;;;8.30;5.00;;;10.90;99.90;;;;;;5013360;28;20403;-68
2021/10/02 05:52:49;;;;;;;6.00;4.50;;;11.00;99.90;;;;;;5013270;28;20511;-68
2021/10/02 05:55:15;;;;;;;7.03;4.60;;;11.00;99.90;;;;;;5013302;28;20963;-68
2021/10/02 05:57:40;;;;;;;4.97;4.40;;;11.10;99.90;;;;;;5028270;28;20177;-68
2021/10/02 06:00:08;;;;;;;7.90;4.53;;;11.20;99.90;;;;;;5013128;28;20164;-68
2021/10/02 06:02:34;;;;;;;6.43;4.60;;;11.30;99.90;;;;;;5013043;28;20184;-68
2021/10/02 06:05:00;;;;;;;6.50;4.53;;;11.30;99.90;;;;;;5013219;28;20462;-68
2021/10/02 06:07:26;;;;;;;5.57;4.70;;;11.50;99.90;;;;;;5014468;28;20838;-68
2021/10/02 06:09:51;;;;;;;6.07;4.17;;;11.50;99.90;;;;;;5031270;28;20546;-69
2021/10/02 06:12:18;;;;;;;8.20;4.57;;;11.60;99.90;;;;;;5032416;28;20227;-62
2021/10/02 06:14:45;;;;;;;5.73;4.23;;;11.80;99.90;;;;;;5035427;28;20171;-62
2021/10/02 06:17:11;;;;;;;5.77;3.87;;;11.90;99.90;;;;;;5035770;28;20410;-66
2021/10/02 06:19:36;;;;;;;6.40;4.67;;;12.00;99.90;;;;;;5035289;28;20418;-64
2021/10/02 06:22:03;;;;;;;5.90;4.77;;;12.20;99.90;;;;;;5035559;28;20446;-63
2021/10/02 06:24:30;;;;;;;6.07;4.50;;;12.20;99.90;;;;;;5035170;28;20207;-66
2021/10/02 06:26:56;;;;;;;9.40;4.50;;;12.20;99.90;;;;;;5035805;28;20922;-65
2021/10/02 06:29:22;;;;;;;7.50;4.40;;;12.30;99.90;;;;;;5035826;28;20421;-66
2021/10/02 06:31:48;;;;;;;5.53;4.40;;;12.40;99.90;;;;;;5035627;28;20435;-63
2021/10/02 06:34:14;;;;;;;6.50;4.03;;;12.50;99.90;;;;;;5035614;28;20430;-63
2021/10/02 06:36:43;;;;;;;6.93;4.40;;;12.70;99.90;;;;;;5036076;28;20414;-62
2021/10/02 06:39:10;;;;;;;5.13;4.27;;;12.80;99.90;;;;;;5035930;28;20768;-63
2021/10/02 06:41:36;;;;;;;6.80;4.17;;;13.00;99.90;;;;;;5035475;28;20438;-66
2021/10/02 06:44:02;;;;;;;5.50;3.90;;;13.10;99.90;;;;;;5035609;28;20496;-66
2021/10/02 06:46:28;;;;;;;7.40;4.20;;;13.10;99.90;;;;;;5035683;28;20204;-67
2021/10/02 06:48:53;;;;;;;5.33;3.60;;;13.30;99.90;;;;;;5035632;28;20426;-67
2021/10/02 06:51:19;;;;;;;4.53;3.73;;;13.30;99.90;;;;;;5035501;28;20546;-67
2021/10/02 06:53:45;;;;;;;7.00;4.47;;;13.50;99.90;;;;;;5035340;28;20176;-67
2021/10/02 06:56:10;;;;;;;6.10;4.03;;;13.60;99.90;;;;;;5035259;28;20183;-65
2021/10/02 06:58:36;;;;;;;6.27;3.53;;;13.80;99.90;;;;;;5035928;28;20228;-65
2021/10/02 07:01:02;;;;;;;4.90;3.53;;;13.80;99.90;;;;;;5035462;28;20582;-65
2021/10/02 07:03:27;;;;;;;4.83;3.73;;;13.90;99.90;;;;;;5035638;28;20275;-65
2021/10/02 07:05:53;;;;;;;5.90;3.90;;;13.90;99.90;;;;;;5035334;28;20164;-65
2021/10/02 07:08:19;;;;;;;4.90;4.17;;;14.00;99.90;;;;;;5035563;28;20168;-65
2021/10/02 07:10:44;;;;;;;3.77;3.37;;;14.10;99.90;;;;;;5035256;28;20218;-65
2021/10/02 07:13:10;;;;;;;5.67;3.87;;;14.30;99.90;;;;;;5035233;28;20549;-65
2021/10/02 07:15:36;;;;;;;9.30;3.73;;;14.40;99.90;;;;;;5035154;28;20171;-65
2021/10/02 07:18:01;;;;;;;5.80;3.60;;;14.60;99.90;;;;;;5035409;28;20172;-65
2021/10/02 07:20:27;;;;;;;6.43;3.43;;;14.70;99.90;;;;;;5035066;28;20636;-65
2021/10/02 07:22:53;;;;;;;4.60;3.27;;;15.00;99.90;;;;;;5033253;28;20238;-65
2021/10/02 07:25:21;;;;;;;3.93;2.90;;;15.20;99.90;;;;;;5034862;28;20708;-65
2021/10/02 07:27:47;;;;;;;4.30;3.40;;;15.30;99.90;;;;;;5034995;28;20179;-65
2021/10/02 07:30:13;;;;;;;5.03;4.27;;;15.40;99.90;;;;;;5035238;28;20999;-65
2021/10/02 07:32:39;;;;;;;3.97;3.37;;;15.50;99.90;;;;;;5034932;28;20201;-65
2021/10/02 07:35:07;;;;;;;5.70;3.70;;;15.60;99.90;;;;;;5034998;28;20759;-65
2021/10/02 07:37:32;;;;;;;5.07;3.80;;;15.60;99.90;;;;;;5034733;28;20403;-65
2021/10/02 07:39:59;;;;;;;3.73;2.90;;;15.80;99.90;;;;;;5029542;28;20515;-65
2021/10/02 07:42:26;;;;;;;11.53;4.03;;;15.90;99.90;;;;;;5034110;28;20218;-65
2021/10/02 07:45:01;;;;;;;5.13;3.70;;;15.90;99.90;;;;;;5033183;28;20495;-66
2021/10/02 07:47:28;;;;;;;6.93;3.60;;;15.90;99.90;;;;;;5035264;28;20951;-66
2021/10/02 07:49:56;;;;;;;6.33;3.83;;;15.80;99.90;;;;;;5033492;28;20420;-66
2021/10/02 07:52:22;;;;;;;6.03;3.90;;;15.70;99.90;;;;;;5034162;28;20482;-68
2021/10/02 07:54:50;;;;;;;5.23;3.60;;;15.60;99.90;;;;;;5023348;28;20418;-66
2021/10/02 07:57:17;;;;;;;11.20;4.57;;;15.60;99.90;;;;;;5033737;28;20505;-67
2021/10/02 07:59:45;;;;;;;13.30;5.97;;;15.60;99.90;;;;;;5034303;28;20414;-68
2021/10/02 08:02:17;;;;;;;6.93;3.50;;;15.60;99.90;;;;;;5034371;28;20426;-65
2021/10/02 08:04:45;;;;;;;6.87;4.20;;;15.60;99.90;;;;;;5034094;28;20442;-66
2021/10/02 08:07:12;;;;;;;5.63;3.90;;;15.60;99.90;;;;;;5034513;28;20407;-67
2021/10/02 08:09:39;;;;;;;5.10;3.80;;;15.70;99.90;;;;;;5031031;28;20426;-68
2021/10/02 08:12:05;;;;;;;4.97;3.87;;;15.80;99.90;;;;;;5034064;28;20431;-67
2021/10/02 08:14:31;;;;;;;5.40;4.37;;;15.90;99.90;;;;;;5042720;28;20423;-68
2021/10/02 08:16:58;;;;;;;9.70;4.10;;;16.00;99.90;;;;;;5034176;28;20465;-68
2021/10/02 08:19:24;;;;;;;6.10;4.63;;;16.10;99.90;;;;;;5033667;28;20241;-66
2021/10/02 08:21:52;;;;;;;6.33;4.50;;;16.20;99.90;;;;;;5032545;28;20984;-70
2021/10/02 08:24:19;;;;;;;5.57;4.60;;;16.20;99.90;;;;;;5035044;28;20445;-68
2021/10/02 08:26:49;;;;;;;5.93;4.20;;;16.30;99.90;;;;;;5033912;28;20403;-68
2021/10/02 08:29:15;;;;;;;6.13;4.37;;;16.40;99.90;;;;;;5033136;28;20498;-67
2021/10/02 08:31:42;;;;;;;6.50;4.77;;;16.50;99.90;;;;;;5027947;28;20888;-67
2021/10/02 08:34:07;;;;;;;7.73;4.43;;;16.70;99.90;;;;;;5027783;28;20271;-67
2021/10/02 08:36:33;;;;;;;7.33;4.30;;;16.80;99.90;;;;;;5033123;28;20430;-67
2021/10/02 08:38:59;;;;;;;6.37;5.33;;;16.90;99.90;;;;;;5033700;28;20199;-67
2021/10/02 08:41:25;;;;;;;5.90;4.17;;;16.90;99.90;;;;;;5033887;28;20183;-67
2021/10/02 08:43:52;;;;;;;6.10;4.97;;;17.00;99.90;;;;;;5032531;28;20199;-67
2021/10/02 08:46:18;;;;;;;7.73;5.03;;;17.10;99.90;;;;;;5033354;28;20429;-67
2021/10/02 08:49:15;;;;;;;5.60;3.83;;;17.20;99.90;;;;;;5033333;28;20931;-67
2021/10/02 08:51:46;;;;;;;5.50;4.07;;;17.30;99.90;;;;;;5033351;28;20414;-67
2021/10/02 08:54:12;;;;;;;5.40;4.13;;;17.40;99.90;;;;;;5033610;28;20525;-67
2021/10/02 08:56:38;;;;;;;6.37;4.50;;;17.50;99.90;;;;;;5033446;28;20456;-67
2021/10/02 08:59:04;;;;;;;6.70;4.33;;;17.60;99.90;;;;;;5033496;28;20402;-67
2021/10/02 09:01:30;;;;;;;6.23;4.33;;;17.70;99.90;;;;;;5033438;28;20803;-67
2021/10/02 09:03:56;;;;;;;8.37;4.70;;;17.90;99.90;;;;;;5033341;28;20465;-67
2021/10/02 09:06:22;;;;;;;6.27;4.80;;;18.00;99.90;;;;;;5033270;28;20168;-67
2021/10/02 09:08:48;;;;;;;7.37;4.80;;;18.10;99.90;;;;;;5033338;28;20251;-67
2021/10/02 09:11:13;;;;;;;6.10;4.30;;;18.30;99.90;;;;;;5033381;28;20259;-67
2021/10/02 09:13:39;;;;;;;4.77;4.03;;;18.40;99.90;;;;;;5033190;28;20460;-67
2021/10/02 09:16:05;;;;;;;7.10;4.67;;;18.60;99.90;;;;;;5033239;28;20160;-67
2021/10/02 09:18:31;;;;;;;6.20;4.57;;;18.70;99.90;;;;;;5033204;28;20174;-67
2021/10/02 09:21:04;;;;;;;5.80;4.20;;;18.70;99.90;;;;;;5033147;28;20190;-67
2021/10/02 09:23:30;;;;;;;5.60;4.37;;;18.80;99.90;;;;;;5033474;28;20200;-67
2021/10/02 09:25:56;;;;;;;7.03;4.00;;;18.90;99.90;;;;;;5033342;28;20480;-67
2021/10/02 09:28:21;;;;;;;6.97;4.27;;;19.00;99.90;;;;;;5032997;28;20198;-67
2021/10/02 09:30:47;;;;;;;5.70;4.20;;;19.10;99.90;;;;;;5031690;28;20254;-67
2021/10/02 09:33:19;;;;;;;4.93;4.30;;;19.30;99.90;;;;;;5032926;28;20215;-68
2021/10/02 09:35:45;;;;;;;5.63;3.60;;;19.40;99.90;;;;;;5033264;28;20156;-67
2021/10/02 09:38:17;;;;;;;4.60;4.03;;;19.50;99.90;;;;;;5033200;28;20976;-67
2021/10/02 09:40:51;;;;;;;5.90;4.00;;;19.80;99.90;;;;;;5033136;28;20214;-67
2021/10/02 09:43:17;;;;;;;6.20;3.97;;;19.90;99.90;;;;;;5032728;28;20495;-67
2021/10/02 09:45:43;;;;;;;8.73;4.33;;;20.10;99.90;;;;;;5032690;28;20442;-67
2021/10/02 09:48:11;;;;;;;4.47;3.63;;;;;;;;;;5036745;28;20867;-67
2021/10/02 09:50:44;;;;;;;5.83;4.30;;;20.20;99.90;;;;;;5037163;28;20402;-68
2021/10/02 09:53:16;;;;;;;4.20;3.23;;;20.90;99.90;;;;;;5036726;28;20883;-68
2021/10/02 09:55:46;;;;;;;3.90;3.50;;;21.10;99.90;;;;;;5036637;28;20726;-67
2021/10/02 09:58:16;;;;;;;5.70;3.50;;;21.00;99.90;;;;;;5036777;28;20391;-67
2021/10/02 10:00:47;;;;;;;3.40;3.10;;;20.90;99.90;;;;;;5036886;28;20394;-68
2021/10/02 10:03:15;;;;;;;3.77;2.93;;;20.90;99.90;;;;;;5036545;28;20938;-67
2021/10/02 10:05:46;;;;;;;4.63;3.40;;;20.80;99.90;;;;;;5036567;28;20433;-67
2021/10/02 10:08:18;;;;;;;5.80;3.60;;;20.80;99.90;;;;;;5035244;28;20418;-68
2021/10/02 10:10:43;;;;;;;4.93;3.00;;;20.80;99.90;;;;;;5024922;28;20465;-67
2021/10/02 10:13:19;;;;;;;4.97;3.07;;;20.80;99.90;;;;;;5016631;28;20423;-67
2021/10/02 10:15:50;;;;;;;6.00;3.37;;;20.70;99.90;;;;;;5016711;28;20168;-67
2021/10/02 10:18:27;;;;;;;4.10;3.47;;;20.80;99.90;;;;;;5016531;28;20477;-67
2021/10/02 10:20:58;;;;;;;3.70;3.07;;;20.90;99.90;;;;;;5016645;28;20490;-67
2021/10/02 10:23:30;;;;;;;7.07;3.27;;;21.00;99.90;;;;;;5016231;28;20445;-67
2021/10/02 10:26:16;;;;;;;3.67;3.00;;;20.90;99.90;;;;;;5016199;28;20458;-67
2021/10/02 10:28:45;;;;;;;3.60;2.90;;;20.80;99.90;;;;;;5016593;28;20379;-67
2021/10/02 10:31:13;;;;;;;3.70;2.83;;;20.70;99.90;;;;;;5016487;28;20764;-67
2021/10/02 10:33:41;;;;;;;4.67;3.43;;;20.70;99.90;;;;;;5016089;28;20399;-67
2021/10/02 10:36:08;;;;;;;4.17;2.67;;;20.60;99.90;;;;;;5016388;28;20429;-67
2021/10/02 10:38:35;;;;;;;4.30;2.90;;;20.60;99.90;;;;;;5016365;28;20418;-67
2021/10/02 10:41:03;;;;;;;3.63;2.90;;;20.70;99.90;;;;;;5016136;28;20434;-67
2021/10/02 10:43:29;;;;;;;5.63;3.50;;;20.80;99.90;;;;;;5015834;28;20423;-67
2021/10/02 10:46:06;;;;;;;4.53;3.20;;;20.80;99.90;;;;;;5015696;28;20461;-67
2021/10/02 10:48:33;;;;;;;4.13;2.70;;;20.90;99.90;;;;;;5015999;28;20819;-67
2021/10/02 10:51:02;;;;;;;4.00;2.90;;;21.10;99.90;;;;;;5015773;28;20896;-67
2021/10/02 10:53:39;;;;;;;3.80;3.00;;;21.10;99.90;;;;;;5015770;28;20423;-67
2021/10/02 10:56:07;;;;;;;4.90;2.50;;;21.10;99.90;;;;;;5016014;28;20857;-67
2021/10/02 10:58:33;;;;;;;4.90;3.23;;;21.30;99.90;;;;;;5014959;28;20406;-67
2021/10/02 11:01:02;;;;;;;4.10;3.07;;;21.40;99.90;;;;;;5015973;28;20759;-67
2021/10/02 11:03:45;;;;;;;3.83;2.90;;;21.60;99.90;;;;;;5015637;28;20427;-67
2021/10/02 11:06:17;;;;;;;3.73;2.93;;;21.70;99.90;;;;;;5015695;28;20754;-67
2021/10/02 11:08:49;;;;;;;3.03;2.37;;;21.60;99.90;;;;;;5015482;28;20848;-67
2021/10/02 11:11:16;;;;;;;4.23;2.60;;;21.60;99.90;;;;;;5015097;28;20400;-68
2021/10/02 11:13:47;;;;;;;8.00;3.30;;;21.70;99.90;;;;;;5015600;28;20900;-67
2021/10/02 11:16:29;;;;;;;4.47;3.10;;;21.70;99.90;;;;;;5015736;28;20399;-67
2021/10/02 11:18:55;;;;;;;5.60;2.70;;;21.80;99.90;;;;;;5015380;28;20410;-68
2021/10/02 11:21:21;;;;;;;3.17;2.77;;;21.80;99.90;;;;;;5015375;28;20483;-67
2021/10/02 11:24:14;;;;;;;3.60;2.77;;;21.80;99.90;;;;;;5014944;28;20156;-67
2021/10/02 11:26:43;;;;;;;4.53;3.20;;;21.80;99.90;;;;;;5015248;28;20535;-66
2021/10/02 11:29:14;;;;;;;3.40;2.23;;;21.80;99.90;;;;;;5015263;28;20490;-66
2021/10/02 11:31:40;;;;;;;4.63;2.87;;;21.80;99.90;;;;;;5014884;28;20419;-67
2021/10/02 11:34:16;;;;;;;4.20;2.57;;;21.80;99.90;;;;;;5015043;28;20415;-66
2021/10/02 11:36:44;;;;;;;3.87;2.70;;;21.80;99.90;;;;;;5015264;28;20767;-66
2021/10/02 11:39:28;;;;;;;3.70;3.00;;;22.00;99.90;;;;;;5015168;28;20412;-66
2021/10/02 11:42:13;;;;;;;4.30;2.63;;;22.00;99.90;;;;;;5013676;28;20865;-66
2021/10/02 11:44:49;;;;;;;5.27;3.07;;;22.00;99.90;;;;;;5014843;28;20526;-68
2021/10/02 11:47:38;;;;;;;5.43;2.90;;;21.90;99.90;;;;;;5015164;28;20733;-66
2021/10/02 11:50:06;;;;;;;3.80;3.30;;;21.90;99.90;;;;;;5014653;28;20880;-66
2021/10/02 11:52:34;;;;;;;4.13;3.17;;;21.90;99.90;;;;;;5014719;28;20499;-66
2021/10/02 11:55:18;;;;;;;5.93;3.13;;;;;;;;;;5014464;28;20835;-66
2021/10/02 11:58:07;;;;;;;3.43;2.67;;;21.90;99.90;;;;;;5014378;28;20398;-66
2021/10/02 12:01:03;;;;;;;5.20;3.07;;;21.60;99.90;;;;;;5014346;28;20418;-66
2021/10/02 12:03:31;;;;;;;4.33;3.53;;;21.70;99.90;;;;;;5014565;28;20791;-66
2021/10/02 12:05:59;;;;;;;3.30;2.70;;;21.70;99.90;;;;;;5014235;28;20454;-65
2021/10/02 12:08:26;;;;;;;5.60;3.73;;;21.80;99.90;;;;;;5014470;28;20415;-66
2021/10/02 12:10:56;;;;;;;4.10;3.20;;;21.80;99.90;;;;;;5018065;28;20458;-65
2021/10/02 12:13:23;;;;;;;6.60;3.37;;;21.90;99.90;;;;;;5033933;28;20430;-66
2021/10/02 12:15:48;;;;;;;4.43;3.60;;;21.90;99.90;;;;;;5033987;28;20410;-65
2021/10/02 12:18:14;;;;;;;3.73;3.13;;;21.90;99.90;;;;;;5034062;28;20489;-66
2021/10/02 12:20:42;;;;;;;4.07;3.10;;;21.90;99.90;;;;;;5034027;28;20176;-66
2021/10/02 12:23:11;;;;;;;5.60;3.53;;;22.00;99.90;;;;;;5033889;28;20222;-66
2021/10/02 12:25:37;;;;;;;3.53;3.03;;;21.90;99.90;;;;;;5034174;28;20450;-65
2021/10/02 12:28:04;;;;;;;4.77;3.77;;;21.90;99.90;;;;;;5033885;28;20777;-66
2021/10/02 12:30:30;;;;;;;3.23;2.70;;;22.00;99.90;;;;;;5033903;28;20414;-66
2021/10/02 12:32:57;;;;;;;4.47;3.80;;;22.00;99.90;;;;;;5033972;28;20433;-66
2021/10/02 12:35:24;;;;;;;3.97;3.23;;;22.00;99.90;;;;;;5033641;28;20411;-66
2021/10/02 12:37:51;;;;;;;6.53;3.33;;;21.90;99.90;;;;;;5033679;28;20418;-66
2021/10/02 12:40:17;;;;;;;4.53;3.17;;;22.00;99.90;;;;;;5033736;28;20985;-66
2021/10/02 12:42:47;;;;;;;3.90;3.00;;;22.10;99.90;;;;;;5032121;28;20434;-66
2021/10/02 12:45:24;;;;;;;4.43;3.63;;;22.20;99.90;;;;;;5033733;28;20457;-66
2021/10/02 12:48:11;;;;;;;4.20;3.37;;;22.30;99.90;;;;;;5033667;28;20398;-66
2021/10/02 12:50:40;;;;;;;4.50;3.87;;;22.30;99.90;;;;;;5033493;28;20803;-67
2021/10/02 12:53:07;;;;;;;4.50;3.67;;;22.30;99.90;;;;;;5033216;28;20479;-66
2021/10/02 12:55:34;;;;;;;4.60;4.10;;;22.40;99.90;;;;;;5033218;28;20406;-67
2021/10/02 12:57:59;;;;;;;4.50;3.47;;;22.30;99.90;;;;;;5033235;28;20460;-67
2021/10/02 13:00:28;;;;;;;4.43;3.60;;;22.20;99.90;;;;;;5033100;28;20410;-66
2021/10/02 13:02:59;;;;;;;5.30;3.60;;;22.20;99.90;;;;;;5033090;28;20198;-66
2021/10/02 13:05:28;;;;;;;5.17;3.80;;;22.30;99.90;;;;;;5033107;28;20439;-66
2021/10/02 13:08:03;;;;;;;3.97;3.13;;;22.20;99.90;;;;;;5033111;28;20960;-66
2021/10/02 13:10:33;;;;;;;5.10;4.00;;;22.10;99.90;;;;;;5033173;28;20540;-66
2021/10/02 13:13:04;;;;;;;4.67;3.70;;;22.00;99.90;;;;;;5033590;28;21041;-66
2021/10/02 13:15:34;;;;;;;5.50;4.13;;;21.90;99.90;;;;;;5033575;28;20411;-67
2021/10/02 13:18:07;;;;;;;4.90;3.57;;;21.90;99.90;;;;;;5033158;28;20406;-66
2021/10/02 13:21:02;;;;;;;5.07;3.63;;;21.80;99.90;;;;;;5032875;28;20398;-66
2021/10/02 13:23:35;;;;;;;3.90;3.37;;;21.80;99.90;;;;;;5032760;28;21220;-67
2021/10/02 13:26:12;;;;;;;5.23;3.60;;;21.80;99.90;;;;;;5032818;28;20458;-66
2021/10/02 13:28:42;;;;;;;4.07;3.30;;;;;;;;;;5033119;28;20461;-66
2021/10/02 13:31:14;;;;;;;4.97;3.40;;;21.80;99.90;;;;;;5033162;28;20398;-65
2021/10/02 13:33:44;;;;;;;4.33;3.83;;;21.70;99.90;;;;;;5032937;28;20497;-66
2021/10/02 13:36:27;;;;;;;5.17;3.60;;;21.80;99.90;;;;;;5032843;28;20860;-66
2021/10/02 13:38:55;;;;;;;5.17;3.00;;;21.70;99.90;;;;;;5032797;28;20398;-65
2021/10/02 13:41:21;;;;;;;4.97;4.00;;;21.80;99.90;;;;;;5033087;28;20441;-65
2021/10/02 13:43:53;;;;;;;3.77;3.17;;;21.80;99.90;;;;;;5032683;28;20763;-66
2021/10/02 13:46:45;;;;;;;4.60;3.20;;;21.80;99.90;;;;;;5033176;28;20399;-66
2021/10/02 13:49:13;;;;;;;6.43;3.57;;;21.70;99.90;;;;;;5029981;28;20462;-66
2021/10/02 13:51:40;;;;;;;5.47;3.80;;;21.70;99.90;;;;;;5032694;28;20968;-66
2021/10/02 13:54:06;;;;;;;4.53;3.40;;;21.70;99.90;;;;;;5032625;28;20406;-66